createdAt,value
2022-11-13T00:00:15.594Z,31.67
2022-11-13T00:03:02.366Z,25.98
2022-11-13T00:05:49.137Z,28.45
2022-11-13T00:08:36.132Z,29.25
2022-11-13T00:11:23.522Z,27.20
2022-11-13T00:14:10.510Z,28.63
2022-11-13T00:16:59.226Z,28.73
2022-11-13T00:19:46.148Z,27.65
2022-11-13T00:22:33.327Z,26.77
2022-11-13T00:25:20.447Z,27.85
2022-11-13T00:28:07.739Z,26.65
2022-11-13T00:31:00.188Z,25.05
2022-11-13T00:36:56.054Z,24.13
2022-11-13T00:39:43.034Z,24.90
2022-11-13T00:42:30.713Z,26.23
2022-11-13T00:45:17.955Z,24.58
2022-11-13T00:48:06.468Z,32.00
2022-11-13T00:50:55.566Z,30.92
2022-11-13T00:53:42.775Z,32.63
2022-11-13T00:56:30.301Z,29.13
2022-11-13T00:59:17.722Z,31.23
2022-11-13T01:02:05.550Z,29.50
2022-11-13T01:04:52.843Z,32.45
2022-11-13T01:07:41.439Z,29.35
2022-11-13T01:10:28.237Z,25.95
2022-11-13T01:13:16.436Z,28.42
2022-11-13T01:16:07.543Z,28.63
2022-11-13T01:18:55.561Z,25.58
2022-11-13T01:21:42.368Z,25.42
2022-11-13T01:24:32.552Z,24.27
2022-11-13T01:27:19.827Z,28.42
2022-11-13T01:30:08.308Z,22.40
2022-11-13T01:32:55.940Z,24.33
2022-11-13T01:35:43.078Z,20.85
2022-11-13T01:38:35.793Z,22.23
2022-11-13T01:41:27.051Z,25.20
2022-11-13T01:44:16.185Z,23.27
2022-11-13T01:47:05.144Z,24.92
2022-11-13T01:49:54.782Z,29.88
2022-11-13T01:52:42.791Z,26.15
2022-11-13T01:55:30.855Z,25.42
2022-11-13T01:58:19.801Z,22.60
2022-11-13T02:01:06.819Z,22.33
2022-11-13T02:03:58.744Z,22.50
2022-11-13T02:06:49.703Z,25.17
2022-11-13T02:09:40.456Z,22.70
2022-11-13T02:12:34.553Z,22.75
2022-11-13T02:15:28.321Z,24.90
2022-11-13T02:18:18.569Z,23.23
2022-11-13T02:21:16.712Z,21.88
2022-11-13T02:24:22.741Z,24.80
2022-11-13T02:27:16.177Z,23.30
2022-11-13T02:30:16.393Z,24.70
2022-11-13T02:33:21.294Z,23.23
2022-11-13T02:36:10.802Z,24.65
2022-11-13T02:39:00.173Z,21.48
2022-11-13T02:41:48.763Z,22.27
2022-11-13T02:44:36.057Z,22.50
2022-11-13T02:47:23.267Z,23.65
2022-11-13T02:50:11.391Z,19.63
2022-11-13T02:52:58.503Z,21.55
2022-11-13T02:55:45.896Z,21.67
2022-11-13T02:58:34.720Z,19.88
2022-11-13T03:01:21.355Z,22.17
2022-11-13T03:04:08.363Z,20.48
2022-11-13T03:06:56.110Z,19.75
2022-11-13T03:09:43.501Z,21.77
2022-11-13T03:12:35.043Z,22.13
2022-11-13T03:15:23.787Z,24.98
2022-11-13T03:18:12.100Z,20.67
2022-11-13T03:21:00.085Z,23.85
2022-11-13T03:23:47.039Z,18.83
2022-11-13T03:26:34.941Z,22.33
2022-11-13T03:29:22.356Z,24.38
2022-11-13T03:32:10.643Z,19.67
2022-11-13T03:34:57.491Z,20.65
2022-11-13T03:37:44.791Z,21.52
2022-11-13T03:40:32.029Z,21.48
2022-11-13T03:43:20.095Z,20.75
2022-11-13T03:46:07.160Z,21.77
2022-11-13T03:48:55.819Z,23.05
2022-11-13T03:51:42.978Z,21.50
2022-11-13T03:54:30.112Z,19.75
2022-11-13T03:57:17.496Z,21.25
2022-11-13T04:00:05.002Z,22.58
2022-11-13T04:02:52.220Z,20.05
2022-11-13T04:05:40.864Z,24.33
2022-11-13T04:08:27.967Z,21.83
2022-11-13T04:11:15.125Z,19.52
2022-11-13T04:14:02.583Z,21.67
2022-11-13T04:16:49.404Z,21.40
2022-11-13T04:19:36.865Z,19.10
2022-11-13T04:22:25.347Z,21.98
2022-11-13T04:25:12.667Z,23.08
2022-11-13T04:28:00.488Z,22.38
2022-11-13T04:30:47.503Z,18.23
2022-11-13T04:33:34.641Z,20.08
2022-11-13T04:36:22.332Z,20.55
2022-11-13T04:39:10.731Z,19.83
2022-11-13T04:42:15.896Z,20.70
2022-11-13T04:45:02.981Z,19.50
2022-11-13T04:47:50.639Z,21.20
2022-11-13T04:50:37.829Z,20.63
2022-11-13T04:53:24.657Z,19.73
2022-11-13T04:56:13.525Z,19.88
2022-11-13T04:59:00.731Z,21.15
2022-11-13T05:01:48.293Z,20.67
2022-11-13T05:04:35.491Z,20.48
2022-11-13T05:07:22.552Z,23.40
2022-11-13T05:10:10.835Z,20.75
2022-11-13T05:12:59.286Z,22.02
2022-11-13T05:15:46.113Z,17.33
2022-11-13T05:18:35.760Z,22.67
2022-11-13T05:21:23.043Z,21.35
2022-11-13T05:24:12.130Z,20.90
2022-11-13T05:26:59.812Z,19.92
2022-11-13T05:29:48.422Z,21.48
2022-11-13T05:32:35.629Z,20.13
2022-11-13T05:35:23.353Z,22.90
2022-11-13T05:38:10.987Z,20.20
2022-11-13T05:41:03.053Z,21.08
2022-11-13T05:43:56.538Z,20.85
2022-11-13T05:46:49.012Z,26.13
2022-11-13T05:49:36.199Z,21.48
2022-11-13T05:52:23.725Z,21.02
2022-11-13T05:55:10.977Z,20.63
2022-11-13T05:58:00.761Z,21.98
2022-11-13T06:00:47.989Z,22.80
2022-11-13T06:03:37.392Z,24.98
2022-11-13T06:06:26.662Z,18.45
2022-11-13T06:09:17.457Z,18.90
2022-11-13T06:12:05.229Z,22.27
2022-11-13T06:14:52.456Z,23.00
2022-11-13T06:17:39.529Z,18.88
2022-11-13T06:20:28.482Z,20.98
2022-11-13T06:23:15.810Z,21.10
2022-11-13T06:26:03.862Z,20.60
2022-11-13T06:28:51.172Z,24.27
2022-11-13T06:31:41.240Z,23.00
2022-11-13T06:34:28.723Z,19.95
2022-11-13T06:37:17.082Z,17.95
2022-11-13T06:40:04.118Z,20.98
2022-11-13T06:42:51.519Z,16.95
2022-11-13T06:45:38.838Z,18.20
2022-11-13T06:48:27.393Z,19.75
2022-11-13T06:51:18.002Z,18.90
2022-11-13T06:54:06.584Z,18.35
2022-11-13T06:56:54.520Z,19.65
2022-11-13T06:59:41.618Z,20.17
2022-11-13T07:02:28.901Z,23.00
2022-11-13T07:05:16.520Z,20.77
2022-11-13T07:08:03.905Z,17.95
2022-11-13T07:10:56.609Z,21.50
2022-11-13T07:13:44.582Z,21.42
2022-11-13T07:16:56.151Z,21.25
2022-11-13T07:19:38.775Z,21.42
2022-11-13T07:22:26.650Z,21.02
2022-11-13T07:25:14.473Z,23.58
2022-11-13T07:28:03.553Z,26.33
2022-11-13T07:30:51.314Z,21.60
2022-11-13T07:33:39.013Z,23.73
2022-11-13T07:36:26.123Z,23.27
2022-11-13T07:39:13.533Z,23.75
2022-11-13T07:42:00.891Z,20.92
2022-11-13T07:44:56.853Z,19.58
2022-11-13T07:47:43.777Z,18.65
2022-11-13T07:50:32.788Z,20.15
2022-11-13T07:53:21.303Z,17.88
2022-11-13T07:56:09.352Z,15.85
2022-11-13T07:58:56.806Z,17.50
2022-11-13T08:01:45.721Z,16.92
2022-11-13T08:04:33.397Z,20.60
2022-11-13T08:07:21.593Z,20.45
2022-11-13T08:10:09.479Z,18.52
2022-11-13T08:13:01.995Z,18.20
2022-11-13T08:15:48.822Z,18.88
2022-11-13T08:18:37.500Z,24.83
2022-11-13T08:21:24.723Z,18.77
2022-11-13T08:24:12.216Z,20.23
2022-11-13T08:26:59.118Z,20.80
2022-11-13T08:29:46.302Z,20.13
2022-11-13T08:32:33.973Z,19.17
2022-11-13T08:35:28.060Z,19.67
2022-11-13T08:38:16.584Z,20.73
2022-11-13T08:41:09.340Z,24.88
2022-11-13T08:43:57.284Z,22.77
2022-11-13T08:46:44.706Z,19.60
2022-11-13T08:49:32.260Z,19.45
2022-11-13T08:52:20.963Z,19.80
2022-11-13T08:55:08.913Z,18.40
2022-11-13T08:57:59.183Z,20.33
2022-11-13T09:00:46.552Z,22.45
2022-11-13T09:03:33.695Z,19.30
2022-11-13T09:06:21.065Z,17.45
2022-11-13T09:09:10.045Z,17.45
2022-11-13T09:11:56.972Z,14.75
2022-11-13T09:14:44.186Z,14.80
2022-11-13T09:17:31.523Z,14.35
2022-11-13T09:20:22.741Z,12.65
2022-11-13T09:23:10.059Z,12.25
2022-11-13T09:26:02.110Z,14.05
2022-11-13T09:28:49.460Z,13.23
2022-11-13T09:31:38.489Z,13.05
2022-11-13T09:34:27.833Z,15.10
2022-11-13T09:37:16.218Z,14.30
2022-11-13T09:40:03.667Z,16.70
2022-11-13T09:42:52.790Z,16.60
2022-11-13T09:45:45.092Z,13.82
2022-11-13T09:51:26.057Z,12.32
2022-11-13T09:54:15.192Z,20.92
2022-11-13T09:57:11.756Z,16.20
2022-11-13T10:00:04.150Z,15.13
2022-11-13T10:03:39.036Z,12.73
2022-11-13T10:06:34.573Z,15.50
2022-11-13T10:09:31.466Z,11.02
2022-11-13T10:12:19.061Z,11.05
2022-11-13T10:15:11.816Z,8.13
2022-11-13T10:18:04.189Z,10.48
2022-11-13T10:20:54.381Z,10.00
2022-11-13T10:23:44.539Z,11.93
2022-11-13T10:26:32.090Z,12.75
2022-11-13T10:29:21.632Z,10.43
2022-11-13T10:32:21.518Z,10.40
2022-11-13T10:35:27.610Z,11.95
2022-11-13T10:38:22.772Z,8.25
2022-11-13T10:41:14.576Z,10.95
2022-11-13T10:44:03.140Z,21.50
2022-11-13T10:46:53.460Z,25.02
2022-11-13T10:49:42.107Z,21.58
2022-11-13T10:52:30.366Z,11.07
2022-11-13T10:55:24.048Z,10.98
2022-11-13T10:58:16.807Z,10.10
2022-11-13T11:01:16.801Z,11.18
2022-11-13T11:04:06.068Z,13.30
2022-11-13T11:07:18.831Z,10.95
2022-11-13T11:10:03.387Z,15.05
2022-11-13T11:12:55.058Z,16.88
2022-11-13T11:15:47.637Z,17.48
2022-11-13T11:18:39.787Z,16.20
2022-11-13T11:24:23.583Z,15.95
2022-11-13T11:27:18.135Z,18.90
2022-11-13T11:30:08.342Z,14.18
2022-11-13T11:33:03.101Z,14.65
2022-11-13T11:35:55.370Z,16.85
2022-11-13T11:38:49.907Z,14.88
2022-11-13T11:41:54.379Z,23.85
2022-11-13T11:44:54.205Z,13.75
2022-11-13T11:47:41.983Z,14.38
2022-11-13T11:50:37.769Z,15.45
2022-11-13T11:53:35.959Z,17.00
2022-11-13T11:56:30.537Z,15.77
2022-11-13T11:59:45.522Z,15.65
2022-11-13T12:03:17.304Z,15.85
2022-11-13T12:06:14.916Z,14.45
2022-11-13T12:09:10.619Z,12.07
2022-11-13T12:12:19.376Z,14.27
2022-11-13T12:15:14.188Z,13.95
2022-11-13T12:18:18.346Z,14.77
2022-11-13T12:21:23.369Z,20.55
2022-11-13T12:24:39.011Z,15.45
2022-11-13T12:27:36.039Z,16.23
2022-11-13T12:30:36.800Z,13.40
2022-11-13T12:33:33.898Z,13.52
2022-11-13T12:36:22.405Z,17.75
2022-11-13T12:39:31.117Z,16.55
2022-11-13T12:42:24.033Z,15.05
2022-11-13T12:45:18.389Z,18.70
2022-11-13T12:48:27.618Z,14.32
2022-11-13T12:51:17.784Z,12.88
2022-11-13T12:54:06.700Z,14.60
2022-11-13T12:56:54.008Z,15.02
2022-11-13T12:59:43.336Z,13.20
2022-11-13T13:02:45.244Z,13.18
2022-11-13T13:08:51.051Z,13.07
2022-11-13T13:11:45.970Z,12.90
2022-11-13T13:15:02.094Z,14.85
2022-11-13T13:17:49.501Z,37.60
2022-11-13T13:20:39.890Z,48.67
2022-11-13T13:23:30.053Z,82.38
2022-11-13T13:26:20.133Z,42.50
2022-11-13T13:29:18.264Z,40.97
2022-11-13T13:32:24.989Z,69.70
2022-11-13T13:35:18.650Z,34.33
2022-11-13T13:38:16.785Z,48.58
2022-11-13T13:41:28.954Z,49.10
2022-11-13T13:44:40.115Z,38.40
2022-11-13T13:47:32.497Z,29.48
2022-11-13T13:50:24.072Z,38.75
2022-11-13T13:53:16.246Z,40.10
2022-11-13T13:58:53.820Z,24.83
2022-11-13T14:01:41.853Z,28.55
2022-11-13T14:04:31.004Z,38.38
2022-11-13T14:07:22.493Z,34.63
2022-11-13T14:10:18.253Z,35.60
2022-11-13T14:13:06.260Z,42.88
2022-11-13T14:16:03.478Z,37.00
2022-11-13T14:18:50.809Z,39.38
2022-11-13T14:21:38.278Z,37.83
2022-11-13T14:24:29.291Z,48.65
2022-11-13T14:27:22.785Z,47.78
2022-11-13T14:30:24.856Z,47.70
2022-11-13T14:33:16.564Z,38.33
2022-11-13T14:38:52.413Z,16.52
2022-11-13T14:41:42.866Z,22.27
2022-11-13T14:44:35.179Z,37.42
2022-11-13T14:47:25.522Z,36.97
2022-11-13T14:50:25.014Z,25.77
2022-11-13T14:53:12.775Z,29.60
2022-11-13T14:56:02.168Z,28.13
2022-11-13T14:58:49.366Z,19.80
2022-11-13T15:01:39.061Z,12.23
2022-11-13T15:04:28.101Z,8.65
2022-11-13T15:07:26.488Z,8.23
2022-11-13T15:10:17.023Z,16.00
2022-11-13T15:13:06.677Z,22.27
2022-11-13T15:15:53.619Z,15.73
2022-11-13T15:18:45.828Z,20.60
2022-11-13T15:21:33.162Z,25.05
2022-11-13T15:24:21.825Z,29.40
2022-11-13T15:27:11.839Z,24.27
2022-11-13T15:29:59.757Z,22.55
2022-11-13T15:32:47.320Z,17.08
2022-11-13T15:35:36.741Z,19.52
2022-11-13T15:38:24.259Z,26.65
2022-11-13T15:41:15.007Z,42.30
2022-11-13T15:44:05.264Z,26.30
2022-11-13T15:46:53.720Z,38.20
2022-11-13T15:49:56.705Z,20.67
2022-11-13T15:52:55.078Z,26.33
2022-11-13T15:55:44.539Z,29.50
2022-11-13T15:58:34.528Z,25.98
2022-11-13T16:01:23.466Z,26.20
2022-11-13T16:04:13.971Z,29.30
2022-11-13T16:07:01.965Z,33.78
2022-11-13T16:09:51.277Z,27.52
2022-11-13T16:12:42.324Z,29.02
2022-11-13T16:15:31.062Z,30.50
2022-11-13T16:18:26.509Z,29.52
2022-11-13T16:21:15.091Z,26.92
2022-11-13T16:24:03.007Z,26.08
2022-11-13T16:26:56.077Z,21.30
2022-11-13T16:29:44.568Z,21.67
2022-11-13T16:32:31.748Z,20.92
2022-11-13T16:35:23.954Z,19.65
2022-11-13T16:38:14.632Z,19.20
2022-11-13T16:41:01.778Z,20.33
2022-11-13T16:43:52.932Z,16.80
2022-11-13T16:46:45.886Z,14.20
2022-11-13T16:49:34.005Z,19.27
2022-11-13T16:52:22.399Z,28.67
2022-11-13T16:55:10.286Z,31.92
2022-11-13T16:57:57.820Z,27.38
2022-11-13T17:00:47.890Z,26.52
2022-11-13T17:03:35.318Z,24.38
2022-11-13T17:06:27.372Z,23.75
2022-11-13T17:09:17.053Z,22.67
2022-11-13T17:12:05.831Z,18.75
2022-11-13T17:14:54.595Z,16.98
2022-11-13T17:17:44.066Z,18.83
2022-11-13T17:20:31.791Z,39.97
2022-11-13T17:23:20.012Z,41.75
2022-11-13T17:26:08.294Z,34.78
2022-11-13T17:28:56.303Z,17.25
2022-11-13T17:31:44.345Z,10.25
2022-11-13T17:34:33.252Z,11.02
2022-11-13T17:37:25.419Z,9.50
2022-11-13T17:40:15.537Z,10.23
2022-11-13T17:43:03.333Z,11.60
2022-11-13T17:45:52.210Z,15.80
2022-11-13T17:48:40.531Z,13.13
2022-11-13T17:51:29.686Z,13.60
2022-11-13T17:54:17.533Z,13.02
2022-11-13T17:57:05.916Z,14.27
2022-11-13T17:59:54.685Z,28.27
2022-11-13T18:02:43.090Z,28.27
2022-11-13T18:05:34.960Z,31.92
2022-11-13T18:08:28.062Z,30.45
2022-11-13T18:11:21.847Z,33.03
2022-11-13T18:14:11.174Z,33.00
2022-11-13T18:16:58.460Z,30.25
2022-11-13T18:19:47.348Z,27.67
2022-11-13T18:22:35.172Z,37.50
2022-11-13T18:25:24.294Z,33.65
2022-11-13T18:28:11.597Z,31.08
2022-11-13T18:30:59.419Z,43.53
2022-11-13T18:33:47.991Z,79.22
2022-11-13T18:36:36.400Z,53.17
2022-11-13T18:39:23.532Z,53.47
2022-11-13T18:42:12.038Z,50.70
2022-11-13T18:45:03.094Z,41.80
2022-11-13T18:47:53.435Z,37.40
2022-11-13T18:50:40.606Z,51.17
2022-11-13T18:53:28.346Z,32.83
2022-11-13T18:56:17.354Z,18.95
2022-11-13T18:59:06.085Z,13.75
2022-11-13T19:01:53.784Z,15.82
2022-11-13T19:04:41.251Z,20.70
2022-11-13T19:07:28.979Z,27.85
2022-11-13T19:10:18.027Z,68.15
2022-11-13T19:13:05.536Z,51.90
2022-11-13T19:15:55.113Z,41.25
2022-11-13T19:18:43.942Z,38.63
2022-11-13T19:21:33.861Z,42.00
2022-11-13T19:24:21.344Z,40.08
2022-11-13T19:27:10.640Z,51.67
2022-11-13T19:29:57.888Z,35.92
2022-11-13T19:32:46.937Z,18.23
2022-11-13T19:35:34.595Z,14.73
2022-11-13T19:38:21.960Z,22.25
2022-11-13T19:41:10.886Z,20.20
2022-11-13T19:43:59.982Z,14.07
2022-11-13T19:46:50.574Z,13.07
2022-11-13T19:49:39.871Z,14.50
2022-11-13T19:52:27.174Z,15.80
2022-11-13T19:55:14.565Z,15.30
2022-11-13T19:58:02.527Z,17.50
2022-11-13T20:00:50.081Z,29.60
2022-11-13T20:03:37.317Z,47.03
2022-11-13T20:06:28.076Z,52.10
2022-11-13T20:09:15.303Z,26.13
2022-11-13T20:12:02.688Z,15.75
2022-11-13T20:14:49.702Z,10.15
2022-11-13T20:17:37.484Z,8.38
2022-11-13T20:20:24.736Z,9.23
2022-11-13T20:23:13.828Z,20.38
2022-11-13T20:26:02.653Z,30.75
2022-11-13T20:28:50.048Z,26.70
2022-11-13T20:31:37.285Z,13.60
2022-11-13T20:34:24.332Z,9.80
2022-11-13T20:37:11.968Z,12.00
2022-11-13T20:40:00.900Z,9.00
2022-11-13T20:42:48.146Z,8.05
2022-11-13T20:45:35.351Z,9.48
2022-11-13T20:48:22.664Z,7.45
2022-11-13T20:51:11.857Z,8.50
2022-11-13T20:53:58.984Z,10.07
2022-11-13T20:56:47.661Z,11.05
2022-11-13T20:59:35.374Z,11.35
2022-11-13T21:02:22.383Z,9.68
2022-11-13T21:05:09.602Z,7.78
2022-11-13T21:07:56.456Z,10.27
2022-11-13T21:10:44.313Z,11.70
2022-11-13T21:13:33.243Z,8.82
2022-11-13T21:16:20.515Z,10.35
2022-11-13T21:19:07.741Z,8.68
2022-11-13T21:21:54.960Z,6.88
2022-11-13T21:24:41.760Z,7.82
2022-11-13T21:27:28.884Z,8.85
2022-11-13T21:30:17.450Z,9.48
2022-11-13T21:33:04.693Z,9.65
2022-11-13T21:35:51.944Z,7.90
2022-11-13T21:38:38.811Z,9.85
2022-11-13T21:41:26.256Z,8.88
2022-11-13T21:44:13.154Z,9.25
2022-11-13T21:47:01.594Z,10.38
2022-11-13T21:49:48.532Z,10.80
2022-11-13T21:52:35.591Z,11.52
2022-11-13T21:55:22.516Z,8.05
2022-11-13T21:58:09.693Z,8.70
2022-11-13T22:00:56.486Z,8.10
2022-11-13T22:03:45.201Z,10.00
2022-11-13T22:06:36.690Z,9.30
2022-11-13T22:09:26.462Z,9.48
2022-11-13T22:12:13.540Z,9.65
2022-11-13T22:15:00.474Z,8.88
2022-11-13T22:17:47.547Z,9.35
2022-11-13T22:20:35.987Z,11.88
2022-11-13T22:23:23.218Z,8.45
2022-11-13T22:26:13.689Z,8.73
2022-11-13T22:29:02.103Z,7.90
2022-11-13T22:31:49.020Z,9.32
2022-11-13T22:34:36.568Z,12.13
2022-11-13T22:37:25.175Z,8.55
2022-11-13T22:40:13.326Z,13.07
2022-11-13T22:43:00.281Z,8.98
2022-11-13T22:45:47.295Z,8.90
2022-11-13T22:48:36.304Z,6.90
2022-11-13T22:51:26.015Z,9.00
2022-11-13T22:54:15.049Z,9.13
2022-11-13T22:57:04.222Z,9.57
2022-11-13T22:59:51.040Z,11.07
2022-11-13T23:02:40.806Z,8.98
2022-11-13T23:05:31.739Z,10.18
2022-11-13T23:08:19.230Z,11.38
2022-11-13T23:11:08.585Z,9.50
2022-11-13T23:13:58.027Z,11.48
2022-11-13T23:16:44.952Z,8.30
2022-11-13T23:19:32.220Z,11.23
2022-11-13T23:22:19.461Z,8.95
2022-11-13T23:25:07.463Z,11.82
2022-11-13T23:27:55.816Z,12.32
2022-11-13T23:30:42.830Z,9.52
2022-11-13T23:33:30.852Z,10.85
2022-11-13T23:36:19.305Z,8.32
2022-11-13T23:39:06.649Z,13.38
2022-11-13T23:41:53.865Z,9.25
2022-11-13T23:44:42.645Z,10.70
2022-11-13T23:47:30.142Z,10.80
2022-11-13T23:50:17.400Z,10.25
2022-11-13T23:53:04.264Z,11.18
2022-11-13T23:55:51.223Z,9.13
2022-11-13T23:58:38.325Z,9.90
